TimeMDT,TemperatureF,Dew PointF,Humidity,Sea Level PressureIn,VisibilityMPH,Wind Direction,Wind SpeedMPH,Gust SpeedMPH,PrecipitationIn,Events,Conditions,WindDirDegrees,DateUTC
12:15 AM,60.8,44.6,55,30.46,10.0,NNW,10.4,21.9,N/A,,Scattered Clouds,330,2013-06-30 06:15:00
12:35 AM,60.8,44.6,55,30.45,10.0,NNW,10.4,-,N/A,,Clear,340,2013-06-30 06:35:00
12:55 AM,59.0,44.6,59,30.44,10.0,NW,17.3,-,N/A,,Clear,320,2013-06-30 06:55:00
1:15 AM,57.2,46.4,67,30.45,10.0,NW,16.1,-,N/A,,Scattered Clouds,320,2013-06-30 07:15:00
1:35 AM,55.4,46.4,72,30.45,10.0,NW,18.4,-,N/A,,Scattered Clouds,320,2013-06-30 07:35:00
1:55 AM,53.6,50.0,88,30.47,10.0,NNW,10.4,-,N/A,,Clear,330,2013-06-30 07:55:00
2:15 AM,55.4,48.2,77,30.46,10.0,North,6.9,-,N/A,,Clear,350,2013-06-30 08:15:00
2:35 AM,57.2,48.2,72,30.46,10.0,Calm,Calm,-,N/A,,Clear,0,2013-06-30 08:35:00
2:55 AM,57.2,48.2,72,30.46,10.0,NNW,5.8,-,N/A,,Clear,330,2013-06-30 08:55:00
3:15 AM,57.2,48.2,72,30.45,10.0,NNE,4.6,-,N/A,,Clear,20,2013-06-30 09:15:00
3:35 AM,57.2,46.4,67,30.45,10.0,East,5.8,-,N/A,,Clear,90,2013-06-30 09:35:00
3:55 AM,57.2,46.4,67,30.44,10.0,SSE,10.4,-,N/A,,Clear,160,2013-06-30 09:55:00
4:15 AM,57.2,46.4,67,30.43,10.0,SSE,8.1,-,N/A,,Clear,150,2013-06-30 10:15:00
4:35 AM,55.4,48.2,77,30.43,10.0,SE,8.1,-,N/A,,Clear,140,2013-06-30 10:35:00
4:55 AM,55.4,48.2,77,30.41,10.0,SE,16.1,-,N/A,,Clear,140,2013-06-30 10:55:00
5:15 AM,55.4,48.2,77,30.40,10.0,SE,15.0,-,N/A,,Clear,140,2013-06-30 11:15:00
5:35 AM,55.4,48.2,77,30.40,10.0,SE,12.7,-,N/A,,Clear,140,2013-06-30 11:35:00
5:55 AM,55.4,48.2,77,30.40,10.0,SE,15.0,-,N/A,,Clear,140,2013-06-30 11:55:00
6:15 AM,57.2,48.2,72,30.41,10.0,SE,15.0,-,N/A,,Clear,130,2013-06-30 12:15:00
6:35 AM,57.2,48.2,72,30.42,10.0,SE,6.9,-,N/A,,Clear,140,2013-06-30 12:35:00
6:55 AM,59.0,46.4,63,30.42,10.0,SE,11.5,-,N/A,,Clear,130,2013-06-30 12:55:00
7:15 AM,59.0,46.4,63,30.42,10.0,SE,12.7,-,N/A,,Clear,130,2013-06-30 13:15:00
7:35 AM,59.0,46.4,63,30.43,10.0,SE,13.8,-,N/A,,Clear,130,2013-06-30 13:35:00
7:55 AM,60.8,48.2,63,30.43,10.0,SE,11.5,-,N/A,,Clear,130,2013-06-30 13:55:00
8:15 AM,60.8,48.2,63,30.44,10.0,ESE,10.4,-,N/A,,Clear,120,2013-06-30 14:15:00
8:35 AM,62.6,46.4,55,30.44,10.0,SE,8.1,-,N/A,,Clear,130,2013-06-30 14:35:00
8:55 AM,62.6,46.4,55,30.44,10.0,SE,8.1,-,N/A,,Clear,130,2013-06-30 14:55:00
9:15 AM,62.6,46.4,55,30.44,10.0,SE,5.8,-,N/A,,Clear,140,2013-06-30 15:15:00
9:35 AM,64.4,46.4,52,30.44,10.0,SE,10.4,-,N/A,,Clear,130,2013-06-30 15:35:00
9:55 AM,64.4,44.6,49,30.44,10.0,SE,8.1,-,N/A,,Clear,140,2013-06-30 15:55:00
10:15 AM,64.4,44.6,49,30.44,10.0,SSE,6.9,-,N/A,,Clear,150,2013-06-30 16:15:00
10:35 AM,66.2,46.4,49,30.45,10.0,SE,8.1,-,N/A,,Clear,130,2013-06-30 16:35:00
10:55 AM,68.0,44.6,43,30.45,10.0,South,4.6,-,N/A,,Clear,190,2013-06-30 16:55:00
11:15 AM,69.8,44.6,40,30.45,10.0,NW,5.8,-,N/A,,Clear,320,2013-06-30 17:15:00
11:35 AM,69.8,42.8,38,30.45,10.0,NNW,6.9,-,N/A,,Clear,340,2013-06-30 17:35:00
11:55 AM,71.6,42.8,35,30.45,10.0,NW,8.1,18.4,N/A,,Clear,310,2013-06-30 17:55:00
12:15 PM,71.6,42.8,35,30.45,10.0,NNW,12.7,16.1,N/A,,Clear,330,2013-06-30 18:15:00
12:35 PM,71.6,42.8,35,30.44,10.0,WNW,12.7,-,N/A,,Clear,300,2013-06-30 18:35:00
12:55 PM,71.6,41.0,33,30.44,10.0,NNW,15.0,-,N/A,,Clear,330,2013-06-30 18:55:00
1:15 PM,73.4,39.2,29,30.44,10.0,North,12.7,19.6,N/A,,Clear,350,2013-06-30 19:15:00
1:35 PM,73.4,35.6,25,30.44,10.0,NNW,16.1,19.6,N/A,,Clear,340,2013-06-30 19:35:00
1:55 PM,73.4,37.4,27,30.44,10.0,NW,13.8,21.9,N/A,,Clear,320,2013-06-30 19:55:00
2:15 PM,73.4,35.6,25,30.44,10.0,NNW,17.3,21.9,N/A,,Clear,330,2013-06-30 20:15:00
2:35 PM,75.2,37.4,25,30.43,10.0,NNW,18.4,23.0,N/A,,Clear,330,2013-06-30 20:35:00
2:55 PM,75.2,35.6,24,30.43,10.0,North,19.6,25.3,N/A,,Clear,350,2013-06-30 20:55:00
3:15 PM,77.0,37.4,24,30.43,10.0,NW,16.1,26.5,N/A,,Clear,320,2013-06-30 21:15:00
3:35 PM,77.0,37.4,24,30.42,10.0,NW,17.3,28.8,N/A,,Clear,320,2013-06-30 21:35:00
3:55 PM,77.0,39.2,26,30.42,10.0,NW,18.4,24.2,N/A,,Clear,320,2013-06-30 21:55:00
4:15 PM,77.0,39.2,26,30.42,10.0,NW,18.4,28.8,N/A,,Clear,320,2013-06-30 22:15:00
4:35 PM,77.0,35.6,22,30.42,10.0,NW,23.0,28.8,N/A,,Clear,310,2013-06-30 22:35:00
4:55 PM,77.0,35.6,22,30.42,10.0,NW,23.0,29.9,N/A,,Clear,320,2013-06-30 22:55:00
5:15 PM,77.0,35.6,22,30.41,10.0,NNW,19.6,31.1,N/A,,Clear,340,2013-06-30 23:15:00
5:35 PM,77.0,33.8,21,30.40,10.0,NW,29.9,35.7,N/A,,Scattered Clouds,320,2013-06-30 23:35:00
5:55 PM,77.0,35.6,22,30.41,10.0,NNW,19.6,-,N/A,,Scattered Clouds,330,2013-06-30 23:55:00
6:15 PM,77.0,35.6,22,30.41,10.0,NNW,23.0,-,N/A,,Clear,340,2013-07-01 00:15:00
6:35 PM,73.4,35.6,25,30.41,10.0,NNW,19.6,-,N/A,,Scattered Clouds,330,2013-07-01 00:35:00
6:55 PM,73.4,37.4,27,30.41,10.0,NNW,19.6,-,N/A,,Scattered Clouds,330,2013-07-01 00:55:00
7:15 PM,75.2,39.2,27,30.42,10.0,North,15.0,-,N/A,,Clear,350,2013-07-01 01:15:00
7:35 PM,73.4,41.0,31,30.43,10.0,NNE,11.5,-,N/A,,Clear,20,2013-07-01 01:35:00
7:55 PM,73.4,41.0,31,30.44,10.0,NE,5.8,-,N/A,,Clear,50,2013-07-01 01:55:00
8:15 PM,73.4,41.0,31,30.44,10.0,SE,9.2,-,N/A,,Mostly Cloudy,130,2013-07-01 02:15:00
8:35 PM,71.6,41.0,33,30.44,10.0,ESE,13.8,-,N/A,,Overcast,120,2013-07-01 02:35:00
8:55 PM,69.8,39.2,33,30.44,10.0,ESE,15.0,23.0,N/A,Rain,Light Rain,110,2013-07-01 02:55:00
9:15 PM,69.8,41.0,35,30.44,10.0,SE,17.3,21.9,N/A,,Overcast,140,2013-07-01 03:15:00
9:35 PM,64.4,46.4,52,30.43,7.0,SSE,21.9,26.5,N/A,Rain,Light Rain,160,2013-07-01 03:35:00
9:55 PM,64.4,44.6,49,30.47,10.0,SSE,11.5,-,N/A,,Scattered Clouds,160,2013-07-01 03:55:00
10:15 PM,66.2,42.8,43,30.48,10.0,ESE,11.5,-,N/A,,Scattered Clouds,120,2013-07-01 04:15:00
10:35 PM,64.4,44.6,49,30.48,10.0,ESE,11.5,-,N/A,,Overcast,120,2013-07-01 04:35:00
10:55 PM,64.4,42.8,45,30.47,10.0,ESE,15.0,-,N/A,,Mostly Cloudy,120,2013-07-01 04:55:00
11:15 PM,64.4,42.8,45,30.46,10.0,SE,19.6,24.2,N/A,,Overcast,130,2013-07-01 05:15:00
11:35 PM,62.6,42.8,48,30.47,10.0,ESE,13.8,-,N/A,,Mostly Cloudy,120,2013-07-01 05:35:00
11:55 PM,62.6,42.8,48,30.48,10.0,ESE,13.8,-,N/A,,Clear,120,2013-07-01 05:55:00